Time;durP1;ratioP1;P1;durP2;ratioP2;P2;SDS_P1;SDS_P2;PMS_P1;PMS_P2;Temp;Humidity;BMP_temperature;BMP_pressure;BME280_temperature;BME280_humidity;BME280_pressure;Samples;Min_cycle;Max_cycle;Signal;HPM_P1;HPM_P2
2022/05/08 00:02:14;;;;;;;3.42;3.13;;;;;;;15.74;58.93;100888.19;4973835;28;20384;-71
2022/05/08 00:04:39;;;;;;;3.07;2.80;;;;;;;15.73;58.72;100886.56;4972630;28;20872;-71
2022/05/08 00:07:05;;;;;;;4.73;3.13;;;;;;;15.74;58.86;100890.13;4973735;28;20396;-71
2022/05/08 00:09:31;;;;;;;5.28;4.00;;;;;;;15.74;58.63;100884.66;4973288;28;20400;-71
2022/05/08 00:11:56;;;;;;;4.53;3.53;;;;;;;15.73;58.73;100883.81;4971990;28;20475;-71
2022/05/08 00:14:21;;;;;;;4.30;3.90;;;;;;;15.75;58.93;100886.28;4972687;28;20447;-71
2022/05/08 00:16:47;;;;;;;4.67;3.53;;;;;;;15.77;58.85;100884.13;4973364;28;20400;-71
2022/05/08 00:19:12;;;;;;;5.90;3.93;;;;;;;15.78;58.53;100875.63;4973605;28;20458;-71
2022/05/08 00:21:39;;;;;;;4.97;3.50;;;;;;;15.78;58.35;100892.03;4972323;28;20451;-71
2022/05/08 00:24:04;;;;;;;4.13;3.37;;;;;;;15.79;58.17;100877.28;4973206;28;20439;-71
2022/05/08 00:26:29;;;;;;;5.57;3.90;;;;;;;15.78;58.45;100885.75;4972839;28;20907;-71
2022/05/08 00:28:55;;;;;;;5.77;3.63;;;;;;;15.80;58.48;100883.56;4973247;28;20396;-71
2022/05/08 00:31:21;;;;;;;6.18;4.10;;;;;;;15.83;58.28;100878.41;4972096;28;20752;-71
2022/05/08 00:33:46;;;;;;;4.47;4.07;;;;;;;15.89;58.22;100879.22;4972828;28;20447;-71
2022/05/08 00:36:11;;;;;;;5.00;3.77;;;;;;;15.90;58.07;100878.13;4973123;28;20400;-71
2022/05/08 00:38:37;;;;;;;3.70;3.40;;;;;;;15.84;57.80;100876.50;4973065;28;20420;-71
2022/05/08 00:41:02;;;;;;;4.03;3.08;;;;;;;15.74;57.86;100871.00;4973380;28;20400;-72
2022/05/08 00:43:32;;;;;;;5.30;3.60;;;;;;;15.65;58.24;100883.50;4972092;28;20911;-71
2022/05/08 00:45:59;;;;;;;3.38;2.67;;;;;;;15.57;58.20;100885.69;4971727;28;20397;-71
2022/05/08 00:48:24;;;;;;;3.13;2.88;;;;;;;15.52;58.17;100879.38;4972630;28;20503;-71
2022/05/08 00:50:52;;;;;;;3.03;2.80;;;;;;;15.45;58.34;100874.13;4973055;28;20507;-71
2022/05/08 00:53:19;;;;;;;2.97;2.75;;;;;;;15.38;58.44;100878.16;4971779;28;20418;-71
2022/05/08 00:55:45;;;;;;;3.80;3.13;;;;;;;15.28;58.84;100873.50;4973155;28;20691;-71
2022/05/08 00:58:11;;;;;;;3.17;2.95;;;;;;;15.22;59.10;100871.00;4971984;28;20422;-71
2022/05/08 01:00:37;;;;;;;2.80;2.50;;;;;;;15.20;58.87;100868.56;4972990;28;20424;-71
2022/05/08 01:03:02;;;;;;;5.07;3.42;;;;;;;15.21;58.62;100874.84;4971182;28;20499;-71
2022/05/08 01:05:28;;;;;;;5.00;3.33;;;;;;;15.22;58.50;100873.72;4972913;28;20404;-71
2022/05/08 01:07:53;;;;;;;3.70;2.57;;;;;;;15.15;58.71;100882.16;4972704;28;20412;-71
2022/05/08 01:10:19;;;;;;;2.97;2.70;;;;;;;15.06;58.93;100873.66;4971611;28;20400;-71
2022/05/08 01:12:44;;;;;;;3.13;2.83;;;;;;;14.95;59.42;100877.41;4972582;28;20407;-71
2022/05/08 01:15:15;;;;;;;6.43;2.97;;;;;;;14.90;59.18;100879.28;4972931;28;20898;-71
2022/05/08 01:17:40;;;;;;;3.60;3.03;;;;;;;14.86;59.54;100879.00;4972615;28;20404;-71
2022/05/08 01:20:06;;;;;;;4.77;2.93;;;;;;;14.83;59.77;100878.69;4971665;28;20455;-71
2022/05/08 01:22:32;;;;;;;4.00;3.65;;;;;;;14.77;59.54;100877.84;4971433;28;20392;-71
2022/05/08 01:24:59;;;;;;;3.10;2.80;;;;;;;14.71;59.60;100875.34;4972887;28;20748;-71
2022/05/08 01:27:25;;;;;;;4.00;2.85;;;;;;;14.67;59.47;100880.50;4972564;28;20404;-71
2022/05/08 01:29:50;;;;;;;3.22;2.92;;;;;;;14.64;59.75;100878.28;4971726;28;20438;-71
2022/05/08 01:32:15;;;;;;;3.23;2.93;;;;;;;14.62;59.63;100877.72;4972515;28;20396;-71
2022/05/08 01:34:41;;;;;;;4.37;3.40;;;;;;;14.62;59.64;100880.44;4971183;28;20764;-71
2022/05/08 01:37:06;;;;;;;2.80;2.60;;;;;;;14.66;59.54;100875.28;4972257;28;20412;-71
2022/05/08 01:39:31;;;;;;;3.10;2.80;;;;;;;14.67;59.04;100875.03;4972644;28;20559;-71
2022/05/08 01:41:57;;;;;;;3.60;3.37;;;;;;;14.63;58.88;100873.91;4972616;28;20407;-71
2022/05/08 01:44:24;;;;;;;3.10;2.50;;;;;;;14.59;59.34;100870.06;4972720;28;20400;-71
2022/05/08 01:46:49;;;;;;;3.15;2.88;;;;;;;14.62;59.13;100871.47;4968999;28;20408;-71
2022/05/08 01:49:34;;;;;;;3.75;3.20;;;;;;;14.63;58.87;100873.09;4972421;28;20400;-72
2022/05/08 01:51:59;;;;;;;3.50;3.20;;;;;;;14.63;58.95;100870.34;4972248;28;20419;-71
2022/05/08 01:54:25;;;;;;;3.30;3.00;;;;;;;14.61;58.84;100870.63;4972603;28;20474;-71
2022/05/08 01:56:51;;;;;;;3.40;3.10;;;;;;;14.59;59.34;100869.25;4971400;28;20416;-71
2022/05/08 01:59:16;;;;;;;4.50;3.67;;;;;;;14.55;59.02;100872.47;4972396;28;20416;-71
2022/05/08 02:01:43;;;;;;;3.43;3.17;;;;;;;14.50;59.06;100867.00;4970878;28;20416;-71
2022/05/08 02:04:15;;;;;;;4.50;4.10;;;;;;;14.45;59.20;100869.69;4972347;28;20400;-71
2022/05/08 02:06:40;;;;;;;6.95;5.60;;;;;;;14.41;59.70;100868.56;4970862;28;20923;-71
2022/05/08 02:09:05;;;;;;;6.82;4.65;;;;;;;14.41;59.36;100873.19;4973115;28;20428;-71
2022/05/08 02:11:31;;;;;;;8.80;5.27;;;;;;;14.41;59.24;100870.47;4975861;28;20388;-71
2022/05/08 02:13:56;;;;;;;7.67;5.67;;;;;;;14.38;59.46;100866.38;4971423;28;20406;-71
2022/05/08 02:16:21;;;;;;;6.07;5.00;;;;;;;14.32;59.39;100869.28;4970422;28;20504;-71
2022/05/08 02:18:47;;;;;;;4.93;4.20;;;;;;;14.25;59.55;100865.94;4975525;28;20423;-71
2022/05/08 02:21:12;;;;;;;6.80;4.37;;;;;;;14.22;59.60;100866.47;4975614;28;20404;-71
2022/05/08 02:23:37;;;;;;;4.30;3.90;;;;;;;14.17;59.47;100867.22;4975718;28;20400;-71
2022/05/08 02:26:03;;;;;;;4.30;3.70;;;;;;;14.15;59.63;100868.56;4974382;28;20423;-71
2022/05/08 02:28:28;;;;;;;5.85;4.47;;;;;;;14.19;59.52;100873.25;4975579;28;20400;-71
2022/05/08 02:30:53;;;;;;;4.47;4.07;;;;;;;14.22;59.74;100871.91;4975422;28;20439;-71
2022/05/08 02:33:18;;;;;;;3.63;3.37;;;;;;;14.18;59.70;100871.59;4975390;28;20416;-71
2022/05/08 02:35:44;;;;;;;3.63;3.42;;;;;;;14.14;59.38;100880.53;4974045;28;20903;-71
2022/05/08 02:38:09;;;;;;;3.80;3.40;;;;;;;14.10;59.78;100876.69;4975227;28;20408;-71
2022/05/08 02:40:35;;;;;;;4.13;3.13;;;;;;;14.10;59.44;100880.22;4974977;28;20412;-71
2022/05/08 02:43:00;;;;;;;3.43;3.23;;;;;;;14.12;59.58;100880.00;4974926;28;20493;-71
2022/05/08 02:45:25;;;;;;;4.90;3.50;;;;;;;14.09;59.62;100881.34;4972430;28;20420;-71
2022/05/08 02:47:51;;;;;;;3.13;2.60;;;;;;;14.05;59.41;100882.91;4975138;28;20400;-71
2022/05/08 02:50:17;;;;;;;3.83;3.50;;;;;;;14.00;59.44;100883.69;4975135;28;20400;-71
2022/05/08 02:52:43;;;;;;;3.28;3.08;;;;;;;13.97;60.14;100877.91;4975289;28;20479;-71
2022/05/08 03:00:38;;;;;;;3.10;2.90;;;;;;;13.82;60.25;100878.59;4975094;28;20391;-71
2022/05/08 03:03:05;;;;;;;3.33;3.00;;;;;;;13.80;59.99;100875.28;4974929;28;20404;-71
2022/05/08 03:05:30;;;;;;;3.50;2.97;;;;;;;13.78;60.44;100876.63;4973628;28;20405;-71
2022/05/08 03:07:55;;;;;;;3.90;3.00;;;;;;;13.75;60.42;100880.69;4974645;28;20415;-71
2022/05/08 03:10:20;;;;;;;3.30;2.90;;;;;;;13.73;60.30;100882.03;4974820;28;20414;-71
2022/05/08 03:12:46;;;;;;;3.47;3.17;;;;;;;13.72;60.54;100880.38;4974659;28;20411;-71
2022/05/08 03:15:11;;;;;;;3.87;2.80;;;;;;;13.72;60.47;100885.81;4973349;28;20895;-71
2022/05/08 03:17:36;;;;;;;3.20;2.90;;;;;;;13.69;60.13;100889.91;4974504;28;20416;-71
2022/05/08 03:20:02;;;;;;;2.80;2.60;;;;;;;13.70;60.61;100888.78;4974515;28;20400;-71
2022/05/08 03:22:27;;;;;;;3.57;3.27;;;;;;;13.71;60.30;100892.34;4973676;28;20400;-71
2022/05/08 03:24:53;;;;;;;4.70;3.53;;;;;;;13.70;60.77;100894.25;4973501;28;20497;-71
2022/05/08 03:27:19;;;;;;;4.45;3.03;;;;;;;13.70;60.17;100894.25;4974414;28;20400;-71
2022/05/08 03:29:44;;;;;;;3.10;2.90;;;;;;;13.69;60.56;100895.34;4974272;28;20407;-71
2022/05/08 03:32:10;;;;;;;2.70;2.50;;;;;;;13.68;60.45;100899.13;4974459;28;20498;-71
2022/05/08 03:34:35;;;;;;;2.72;2.60;;;;;;;13.65;60.44;100896.09;4974182;28;20408;-71
2022/05/08 03:37:00;;;;;;;2.40;2.30;;;;;;;13.59;59.92;100897.94;4973193;28;20416;-71
2022/05/08 03:39:26;;;;;;;2.90;2.33;;;;;;;13.50;59.85;100894.81;4974245;28;20416;-71
2022/05/08 03:41:51;;;;;;;2.50;2.30;;;;;;;13.44;59.94;100900.47;4974126;28;20396;-71
2022/05/08 03:44:16;;;;;;;2.50;2.30;;;;;;;13.35;59.87;100897.34;4967559;28;20986;-71
2022/05/08 03:46:41;;;;;;;3.70;2.93;;;;;;;13.28;60.28;100896.72;4974015;28;20396;-71
2022/05/08 03:49:07;;;;;;;2.30;2.25;;;;;;;13.22;60.20;100899.63;4972031;28;20748;-71
2022/05/08 03:51:32;;;;;;;8.83;3.53;;;;;;;13.17;60.33;100894.13;4973690;28;20626;-71
2022/05/08 03:53:57;;;;;;;4.03;2.60;;;;;;;13.09;60.23;100889.09;4970788;28;20494;-71
2022/05/08 03:56:23;;;;;;;3.03;2.58;;;;;;;13.04;60.90;100897.19;4966248;28;20459;-71
2022/05/08 03:58:48;;;;;;;3.17;2.60;;;;;;;13.05;60.78;100898.78;4972809;28;20514;-71
2022/05/08 04:01:13;;;;;;;2.75;2.55;;;;;;;13.05;61.25;100902.34;4967881;28;20755;-71
2022/05/08 04:03:39;;;;;;;3.03;2.43;;;;;;;13.07;61.51;100897.50;4973579;28;20396;-71
2022/05/08 04:06:04;;;;;;;4.10;2.50;;;;;;;13.08;61.15;100893.69;4971881;28;20408;-71
2022/05/08 04:08:29;;;;;;;2.80;2.60;;;;;;;13.07;61.65;100896.66;4973359;28;20397;-71
2022/05/08 04:10:56;;;;;;;3.00;2.80;;;;;;;13.07;62.14;100894.78;4973227;28;20884;-71
2022/05/08 04:13:21;;;;;;;2.80;2.53;;;;;;;13.12;62.12;100894.88;4988340;28;20399;-71
2022/05/08 04:18:41;;;;;;;3.22;2.92;;;;;;;13.15;62.52;100899.81;4957564;28;20428;-71
2022/05/08 04:21:06;;;;;;;2.60;2.40;;;;;;;13.13;62.47;100898.41;4973420;28;20772;-71
2022/05/08 04:26:15;;;;;;;4.90;3.00;;;;;;;13.16;62.48;100906.91;4972822;28;20567;-71
2022/05/08 04:28:41;;;;;;;3.72;3.35;;;;;;;13.20;62.55;100904.50;4973003;28;20499;-71
2022/05/08 04:31:06;;;;;;;6.67;3.70;;;;;;;13.26;62.61;100904.31;4973119;28;20408;-71
2022/05/08 04:33:31;;;;;;;5.57;3.80;;;;;;;13.30;62.63;100901.91;4971227;28;20447;-71
2022/05/08 04:35:56;;;;;;;3.50;3.30;;;;;;;13.31;62.89;100909.00;4972243;28;20412;-71
2022/05/08 04:38:22;;;;;;;4.17;3.77;;;;;;;13.34;63.10;100911.22;4973135;28;20844;-71
2022/05/08 04:40:47;;;;;;;5.17;3.80;;;;;;;13.34;63.06;100908.50;4972851;28;20411;-71
2022/05/08 04:43:12;;;;;;;4.80;4.40;;;;;;;13.34;63.39;100912.03;4972383;28;20439;-71
2022/05/08 04:45:37;;;;;;;4.17;3.50;;;;;;;13.37;63.58;100908.81;4972815;28;20853;-71
2022/05/08 04:48:03;;;;;;;3.70;3.40;;;;;;;13.40;63.16;100918.41;4967094;28;20432;-71
2022/05/08 04:50:28;;;;;;;3.20;3.00;;;;;;;13.42;62.94;100921.69;4971150;28;20412;-71
2022/05/08 04:52:54;;;;;;;3.30;3.00;;;;;;;13.41;62.51;100920.84;4970522;28;20950;-71
2022/05/08 04:55:19;;;;;;;3.67;3.20;;;;;;;13.40;62.79;100918.41;4967788;28;20511;-71
2022/05/08 04:57:44;;;;;;;4.23;3.70;;;;;;;13.38;63.04;100921.34;4972779;28;20463;-71
2022/05/08 05:00:10;;;;;;;3.45;3.08;;;;;;;13.38;63.05;100920.53;4971442;28;20418;-71
2022/05/08 05:02:36;;;;;;;5.65;3.67;;;;;;;13.39;63.20;100917.56;4972882;28;20392;-71
2022/05/08 05:05:01;;;;;;;3.03;2.73;;;;;;;13.40;63.45;100926.56;4972833;28;20388;-71
2022/05/08 05:07:27;;;;;;;3.37;2.53;;;;;;;13.41;63.26;100923.56;4967037;28;20397;-71
2022/05/08 05:09:53;;;;;;;3.42;3.22;;;;;;;13.42;63.07;100919.78;4964700;28;20435;-71
2022/05/08 05:12:19;;;;;;;4.63;3.13;;;;;;;13.41;63.31;100920.03;4971605;28;20404;-71
2022/05/08 05:14:44;;;;;;;3.75;3.42;;;;;;;13.41;63.81;100922.75;4972927;28;20954;-71
2022/05/08 05:17:09;;;;;;;4.17;3.77;;;;;;;13.45;63.88;100932.06;4972778;28;20962;-71
2022/05/08 05:19:35;;;;;;;4.27;3.70;;;;;;;13.49;64.14;100928.59;4970021;28;20420;-71
2022/05/08 05:22:00;;;;;;;4.43;4.07;;;;;;;13.55;64.27;100940.38;4972632;28;20496;-71
2022/05/08 05:24:25;;;;;;;4.47;4.10;;;;;;;13.59;64.49;100935.22;4971229;28;20442;-71
2022/05/08 05:26:52;;;;;;;5.43;4.47;;;;;;;13.65;63.86;100934.22;4971317;28;20819;-71
2022/05/08 05:29:17;;;;;;;11.18;4.95;;;;;;;13.70;63.87;100943.25;4969443;28;20458;-71
2022/05/08 05:31:43;;;;;;;6.63;5.82;;;;;;;13.71;63.96;100936.75;4971350;28;20971;-71
2022/05/08 05:34:08;;;;;;;6.37;5.27;;;;;;;13.74;64.35;100941.69;4971432;28;20412;-71
2022/05/08 05:36:33;;;;;;;6.07;4.97;;;;;;;13.79;63.85;100946.38;4970872;28;20475;-72
2022/05/08 05:38:59;;;;;;;6.33;5.30;;;;;;;13.87;64.34;100944.03;4971714;28;20431;-72
2022/05/08 05:41:24;;;;;;;5.40;4.83;;;;;;;13.91;63.99;100941.63;4970488;28;20412;-71
2022/05/08 05:43:49;;;;;;;5.53;5.05;;;;;;;13.96;64.25;100942.50;4970480;28;20502;-72
2022/05/08 05:48:58;;;;;;;7.90;5.60;;;;;;;14.05;64.17;100953.78;4973956;28;20982;-71
2022/05/08 05:51:24;;;;;;;6.20;5.60;;;;;;;14.06;64.46;100957.34;4971936;28;20501;-71
2022/05/08 05:53:49;;;;;;;6.90;5.97;;;;;;;14.10;64.41;100955.72;4975877;28;20763;-71
2022/05/08 05:56:14;;;;;;;6.77;6.07;;;;;;;14.14;64.23;100956.84;4974622;28;20408;-71
2022/05/08 05:58:39;;;;;;;7.20;6.50;;;;;;;14.20;64.21;100962.09;4968026;28;20424;-71
2022/05/08 06:01:05;;;;;;;8.15;6.68;;;;;;;14.21;64.18;100961.03;4970242;28;20834;-71
2022/05/08 06:03:32;;;;;;;6.63;6.03;;;;;;;14.22;64.16;100964.59;4972751;28;20416;-71
2022/05/08 06:05:57;;;;;;;7.45;6.70;;;;;;;14.23;64.50;100958.88;4975565;28;20393;-71
2022/05/08 06:08:22;;;;;;;9.55;6.22;;;;;;;14.28;64.56;100966.28;4974945;28;20477;-71
2022/05/08 06:10:48;;;;;;;7.57;6.87;;;;;;;14.32;64.16;100968.25;4974404;28;20748;-71
2022/05/08 06:13:13;;;;;;;9.20;7.60;;;;;;;14.38;64.51;100963.69;4974226;28;20424;-71
2022/05/08 06:15:38;;;;;;;6.65;5.97;;;;;;;14.42;64.64;100978.47;4967557;28;20744;-71
2022/05/08 06:18:04;;;;;;;7.20;6.50;;;;;;;14.48;64.73;100972.81;4962430;28;20519;-71
2022/05/08 06:20:31;;;;;;;6.63;5.85;;;;;;;14.53;64.69;100972.84;4971406;28;20416;-70
2022/05/08 06:22:56;;;;;;;8.00;6.20;;;;;;;14.58;64.33;100984.88;4974521;28;20404;-71
2022/05/08 06:25:21;;;;;;;7.00;5.23;;;;;;;14.62;64.42;100983.28;4966045;28;20408;-71
2022/05/08 06:27:46;;;;;;;5.87;5.23;;;;;;;14.66;63.71;100987.13;4975064;28;20903;-71
2022/05/08 06:30:12;;;;;;;6.53;5.43;;;;;;;14.69;63.57;100984.72;4973590;28;20475;-71
2022/05/08 06:32:37;;;;;;;6.40;5.63;;;;;;;14.73;63.45;100983.13;4972827;28;20415;-71
2022/05/08 06:35:03;;;;;;;6.13;5.55;;;;;;;14.77;63.92;100983.41;4975411;28;20724;-71
2022/05/08 06:37:28;;;;;;;5.53;5.03;;;;;;;14.84;63.83;100989.50;4974989;28;20404;-72
2022/05/08 06:39:54;;;;;;;5.67;5.17;;;;;;;14.86;63.61;100988.13;4970949;28;20443;-73
2022/05/08 06:42:19;;;;;;;5.20;4.80;;;;;;;14.88;63.43;100996.91;4973720;28;20408;-73
2022/05/08 06:44:44;;;;;;;4.97;4.53;;;;;;;14.91;63.05;100980.00;4974829;28;20740;-73
2022/05/08 06:47:10;;;;;;;4.90;4.50;;;;;;;14.94;62.65;100984.13;4972961;28;20455;-73
2022/05/08 06:49:35;;;;;;;5.67;3.93;;;;;;;14.98;62.89;100994.22;4973452;28;20820;-73
2022/05/08 06:52:01;;;;;;;6.30;5.80;;;;;;;15.01;62.65;100996.47;4973204;28;20575;-73
2022/05/08 06:54:26;;;;;;;7.00;6.40;;;;;;;15.04;62.57;100995.94;4954013;28;20458;-72
2022/05/08 06:56:53;;;;;;;7.53;6.83;;;;;;;15.07;62.91;100995.41;4971429;28;20507;-72
2022/05/08 07:02:02;;;;;;;6.38;5.38;;;;;;;15.18;62.89;101000.97;4975034;28;20498;-71
2022/05/08 07:04:27;;;;;;;8.38;7.05;;;;;;;15.22;62.78;100999.31;4974695;28;20392;-71
2022/05/08 07:06:53;;;;;;;7.60;6.90;;;;;;;15.24;62.60;101008.09;4969993;28;20424;-71
2022/05/08 07:09:18;;;;;;;12.70;5.83;;;;;;;15.27;62.73;101002.94;4964934;28;20412;-71
2022/05/08 07:11:47;;;;;;;7.73;6.20;;;;;;;15.33;62.32;100999.16;4970152;28;20467;-71
2022/05/08 07:14:16;;;;;;;6.97;6.28;;;;;;;15.34;62.55;101006.25;4972753;28;20452;-71
2022/05/08 07:16:41;;;;;;;8.90;6.32;;;;;;;15.34;62.54;101002.72;4974113;28;20463;-71
2022/05/08 07:19:07;;;;;;;6.07;5.57;;;;;;;15.38;62.43;101004.63;4974425;28;20427;-72
2022/05/08 07:21:32;;;;;;;6.57;6.05;;;;;;;15.45;62.11;100999.75;4969113;28;20551;-76
2022/05/08 07:23:57;;;;;;;8.33;7.50;;;;;;;15.41;62.39;101006.03;4971929;28;20427;-71
2022/05/08 07:26:23;;;;;;;7.27;5.90;;;;;;;15.41;62.12;101011.50;4973100;28;20411;-71
2022/05/08 07:28:48;;;;;;;5.85;5.25;;;;;;;15.46;61.93;101017.81;4969861;28;20495;-71
2022/05/08 07:31:13;;;;;;;6.50;5.80;;;;;;;15.49;61.66;101013.75;4970306;28;20427;-72
2022/05/08 07:33:39;;;;;;;5.40;4.90;;;;;;;15.52;62.04;101011.31;4965233;28;20424;-72
2022/05/08 07:36:14;;;;;;;6.23;5.23;;;;;;;15.60;61.17;101017.38;4959027;28;20429;-72
2022/05/08 07:38:45;;;;;;;6.10;5.50;;;;;;;15.66;61.17;101017.13;4963563;28;20432;-72
2022/05/08 07:41:12;;;;;;;6.32;5.82;;;;;;;15.71;61.18;101022.59;4966582;28;20768;-72
2022/05/08 07:43:38;;;;;;;6.22;5.22;;;;;;;15.76;61.10;101009.00;4944212;28;20410;-72
2022/05/08 07:46:04;;;;;;;5.43;4.90;;;;;;;15.80;61.15;101015.56;4970045;28;20779;-71
2022/05/08 07:48:30;;;;;;;4.80;4.43;;;;;;;15.84;60.97;101016.66;4968220;28;20481;-72
2022/05/08 07:50:59;;;;;;;6.33;4.70;;;;;;;15.86;60.77;101022.72;4971713;28;20927;-71
2022/05/08 07:53:24;;;;;;;5.30;4.80;;;;;;;15.89;60.73;101027.63;4970249;28;20420;-71
2022/05/08 07:55:52;;;;;;;4.93;4.53;;;;;;;15.92;61.08;101024.38;4970374;28;20407;-71
2022/05/08 07:58:19;;;;;;;10.23;5.03;;;;;;;15.95;60.74;101023.00;4969319;28;20812;-71
2022/05/08 08:00:44;;;;;;;5.00;4.50;;;;;;;15.99;61.02;101021.41;4969302;28;20416;-71
2022/05/08 08:03:10;;;;;;;5.05;4.55;;;;;;;16.04;60.87;101027.69;4968145;28;20439;-71
2022/05/08 08:05:35;;;;;;;4.87;4.47;;;;;;;16.12;60.49;101023.63;4971567;28;20503;-71
2022/05/08 08:08:00;;;;;;;4.53;4.13;;;;;;;16.31;59.80;101034.91;4968108;28;20481;-71
2022/05/08 08:10:26;;;;;;;4.93;4.53;;;;;;;16.43;59.39;101030.03;4971556;28;20412;-71
2022/05/08 08:12:51;;;;;;;5.20;4.70;;;;;;;16.34;59.45;101028.88;4983317;28;20442;-71
2022/05/08 08:15:17;;;;;;;4.37;3.97;;;;;;;16.40;59.12;101033.31;4970033;28;20899;-71
2022/05/08 08:17:42;;;;;;;4.50;4.10;;;;;;;16.46;59.10;101032.22;4972174;28;20540;-71
2022/05/08 08:20:07;;;;;;;3.93;3.73;;;;;;;16.47;58.94;101034.69;4971369;28;20799;-71
2022/05/08 08:22:34;;;;;;;4.27;3.87;;;;;;;16.49;59.14;101034.41;4970374;28;20474;-71
2022/05/08 08:25:00;;;;;;;4.15;3.85;;;;;;;16.57;58.73;101040.22;4968520;28;20431;-71
2022/05/08 08:27:26;;;;;;;4.70;3.65;;;;;;;16.66;58.52;101036.97;4969641;28;20404;-71
2022/05/08 08:29:53;;;;;;;6.22;4.63;;;;;;;16.75;58.23;101044.34;4973072;28;20409;-71
2022/05/08 08:32:18;;;;;;;3.90;3.55;;;;;;;16.83;57.87;101037.50;4967905;28;20469;-71
2022/05/08 08:34:43;;;;;;;4.95;4.05;;;;;;;16.88;57.89;101041.09;4970049;28;20424;-71
2022/05/08 08:37:08;;;;;;;3.83;3.53;;;;;;;16.95;57.43;101047.13;4971429;28;20404;-71
2022/05/08 08:39:34;;;;;;;4.27;3.67;;;;;;;17.03;56.88;101040.25;4961812;28;20419;-71
2022/05/08 08:42:21;;;;;;;5.37;4.00;;;;;;;17.06;57.20;101046.00;4969805;28;20416;-72
2022/05/08 08:47:42;;;;;;;4.53;4.13;;;;;;;17.09;57.17;101042.72;4972849;28;20539;-71
2022/05/08 08:50:09;;;;;;;4.00;3.60;;;;;;;17.17;57.01;101041.38;4966598;28;20404;-72
2022/05/08 08:52:34;;;;;;;3.97;3.65;;;;;;;17.30;56.90;101038.06;4971418;28;20423;-71
2022/05/08 08:55:00;;;;;;;5.32;4.03;;;;;;;17.42;56.68;101043.28;4972772;28;20404;-71
2022/05/08 08:57:25;;;;;;;4.77;3.50;;;;;;;17.58;56.69;101042.19;4968131;28;20392;-71
2022/05/08 08:59:50;;;;;;;3.47;3.07;;;;;;;17.73;55.71;101039.41;4970314;28;20416;-71
2022/05/08 09:02:17;;;;;;;3.67;3.47;;;;;;;17.85;55.50;101045.38;4969431;28;20421;-71
2022/05/08 09:04:44;;;;;;;3.03;2.75;;;;;;;17.89;54.99;101041.00;4970000;28;20913;-71
2022/05/08 09:07:38;;;;;;;4.90;4.43;;;;;;;17.99;54.96;101045.63;4968230;28;20459;-71
2022/05/08 09:10:10;;;;;;;5.90;5.30;;;;;;;18.07;54.96;101045.06;4967010;28;20501;-72
2022/05/08 09:12:40;;;;;;;3.42;3.13;;;;;;;18.14;54.56;101046.38;4967360;28;20402;-72
2022/05/08 09:15:31;;;;;;;3.77;3.40;;;;;;;18.28;53.69;101045.78;4968236;28;20423;-71
2022/05/08 09:18:06;;;;;;;5.00;4.13;;;;;;;18.38;53.63;101049.28;4965931;28;20890;-71
2022/05/08 09:20:40;;;;;;;4.43;3.93;;;;;;;18.49;53.05;101050.88;4968561;28;20407;-71
2022/05/08 09:23:16;;;;;;;5.00;4.30;;;;;;;18.57;53.06;101047.56;4970408;28;20544;-71
2022/05/08 09:25:44;;;;;;;4.47;4.07;;;;;;;18.67;53.08;101051.38;4975422;28;20482;-72
2022/05/08 09:28:14;;;;;;;3.40;3.20;;;;;;;18.83;52.26;101048.25;4970833;28;20412;-72
2022/05/08 09:30:58;;;;;;;5.68;3.67;;;;;;;19.05;52.12;101040.38;4972818;28;20408;-72
2022/05/08 09:33:27;;;;;;;3.60;3.40;;;;;;;19.23;51.45;101049.88;4972913;28;20424;-74
2022/05/08 09:35:53;;;;;;;4.53;3.40;;;;;;;19.40;51.13;101043.91;4964345;28;20411;-72
2022/05/08 09:38:18;;;;;;;3.80;3.50;;;;;;;19.51;50.95;101034.50;4974970;28;20482;-72
2022/05/08 09:40:45;;;;;;;6.13;4.00;;;;;;;19.64;51.03;101037.38;4968440;28;20414;-72
2022/05/08 09:43:29;;;;;;;4.40;3.33;;;;;;;19.82;51.19;101030.34;4976231;28;20479;-72
2022/05/08 09:45:58;;;;;;;5.68;3.38;;;;;;;20.01;51.23;101038.63;4976315;28;20388;-72
2022/05/08 09:48:26;;;;;;;4.18;3.03;;;;;;;20.35;50.54;101042.06;4976100;28;20439;-72
2022/05/08 09:50:56;;;;;;;3.42;3.22;;;;;;;20.69;49.76;101033.59;4975839;28;20411;-73
2022/05/08 09:53:21;;;;;;;4.10;3.73;;;;;;;21.02;48.27;101024.28;4976114;28;20479;-72
2022/05/08 09:55:47;;;;;;;3.83;3.53;;;;;;;21.54;47.47;101031.38;4975330;28;20832;-72
2022/05/08 09:58:12;;;;;;;3.85;3.33;;;;;;;22.67;45.60;101031.56;4963371;28;20559;-73
2022/05/08 10:00:40;;;;;;;3.10;2.90;;;;;;;23.79;42.55;101027.63;4976179;28;20864;-72
2022/05/08 10:03:08;;;;;;;3.97;3.13;;;;;;;24.49;40.98;101027.53;4973862;28;20400;-72
2022/05/08 10:05:34;;;;;;;3.10;2.90;;;;;;;24.79;40.65;101029.34;4975979;28;20404;-73
2022/05/08 10:08:02;;;;;;;4.72;3.30;;;;;;;25.06;39.74;101028.19;4976191;28;20415;-72
2022/05/08 10:15:56;;;;;;;3.15;2.95;;;;;;;26.07;37.72;101016.31;4975532;28;20411;-72
2022/05/08 10:18:28;;;;;;;4.18;3.10;;;;;;;26.21;37.67;101013.34;4975475;28;20427;-71
2022/05/08 10:20:59;;;;;;;3.70;3.40;;;;;;;26.27;36.13;101018.38;4975754;28;20483;-71
2022/05/08 10:23:56;;;;;;;4.03;3.72;;;;;;;26.33;36.22;101010.63;4975725;28;20400;-72
2022/05/08 10:26:23;;;;;;;4.13;3.20;;;;;;;26.42;36.20;101019.72;4942567;28;20411;-72
2022/05/08 10:29:03;;;;;;;3.20;2.70;;;;;;;26.85;35.47;101015.81;4975809;28;20428;-72
2022/05/08 10:31:52;;;;;;;4.72;3.35;;;;;;;26.99;35.06;101011.63;4966057;28;20466;-72
2022/05/08 10:34:34;;;;;;;3.28;2.95;;;;;;;27.09;34.53;101010.38;4975290;28;20419;-72
2022/05/08 10:37:11;;;;;;;3.97;3.30;;;;;;;27.10;34.92;101007.22;4974390;28;20439;-72
2022/05/08 10:39:42;;;;;;;3.10;2.75;;;;;;;27.17;34.85;101006.69;4963408;28;20934;-72
2022/05/08 10:42:33;;;;;;;4.20;3.17;;;;;;;27.16;34.78;101005.88;4975146;28;20423;-72
2022/05/08 10:44:59;;;;;;;2.63;2.53;;;;;;;27.10;34.89;101007.22;4971621;28;20412;-72
2022/05/08 10:47:37;;;;;;;5.75;3.00;;;;;;;26.99;34.89;101002.44;4969672;28;20438;-72
2022/05/08 10:50:06;;;;;;;3.88;3.47;;;;;;;26.96;34.33;101003.13;4961719;28;20433;-72
2022/05/08 10:52:33;;;;;;;3.60;3.10;;;;;;;27.07;34.55;101007.91;4972722;28;20430;-72
2022/05/08 10:55:04;;;;;;;5.65;3.95;;;;;;;26.98;34.30;101011.94;4973795;28;20393;-72
2022/05/08 10:57:30;;;;;;;3.30;3.00;;;;;;;27.17;33.89;101003.88;4975131;28;20400;-72
2022/05/08 10:59:56;;;;;;;2.80;2.60;;;;;;;27.27;33.35;101006.25;4973122;28;20752;-72
2022/05/08 11:02:40;;;;;;;3.25;2.95;;;;;;;27.33;32.70;101000.13;4949916;28;20781;-72
2022/05/08 11:05:07;;;;;;;3.10;3.00;;;;;;;27.21;33.24;101011.22;4949536;28;20967;-72
2022/05/08 11:07:32;;;;;;;4.60;2.95;;;;;;;27.12;33.50;101007.72;4947812;28;20425;-72
2022/05/08 11:09:58;;;;;;;3.03;2.73;;;;;;;27.31;33.70;100993.28;4947263;28;20456;-72
2022/05/08 11:12:24;;;;;;;3.30;3.00;;;;;;;27.48;33.12;101001.47;4949021;28;20419;-73
2022/05/08 11:14:49;;;;;;;2.95;2.85;;;;;;;27.76;33.20;100990.50;4947498;28;20437;-72
2022/05/08 11:17:16;;;;;;;4.20;3.10;;;;;;;27.71;32.79;101005.44;4948379;28;20422;-72
2022/05/08 11:19:52;;;;;;;3.58;2.70;;;;;;;27.48;33.04;100997.88;4949013;28;20453;-72
2022/05/08 11:22:17;;;;;;;2.65;2.45;;;;;;;27.21;32.93;100996.50;4948625;28;20421;-71
2022/05/08 11:24:45;;;;;;;3.65;2.85;;;;;;;27.04;32.99;100993.88;4958055;28;20428;-72
2022/05/08 11:27:12;;;;;;;2.50;2.00;;;;;;;26.96;32.94;100990.03;4963742;28;20421;-73
2022/05/08 11:29:37;;;;;;;3.80;2.33;;;;;;;26.98;32.74;100990.50;4948137;28;20424;-72
2022/05/08 11:38:02;;;;;;;2.90;2.15;;;;;;;27.80;32.20;100994.19;4954103;28;20427;-71
2022/05/08 11:40:28;;;;;;;2.13;1.92;;;;;;;28.08;31.01;100997.94;4948578;28;20480;-72
2022/05/08 11:42:53;;;;;;;3.30;2.07;;;;;;;28.26;29.84;100987.34;4948153;28;20414;-72
2022/05/08 11:45:18;;;;;;;3.40;1.87;;;;;;;28.21;29.70;100982.84;4967573;28;20420;-72
2022/05/08 11:47:50;;;;;;;3.80;2.00;;;;;;;28.09;28.30;100984.81;4958123;28;20512;-72
2022/05/08 11:50:16;;;;;;;5.70;1.80;;;;;;;27.93;28.43;100986.63;4948805;28;20419;-72
2022/05/08 11:52:41;;;;;;;2.00;1.90;;;;;;;28.01;29.09;100983.75;4947049;28;20421;-72
2022/05/08 11:55:08;;;;;;;1.70;1.60;;;;;;;28.35;28.56;100982.47;4949114;28;20902;-72